ADDS METAR Data INFO
IDs: Format: Raw Decoded Include TAF

Data at: 2055 UTC 24 Jun 2017

KRPH 242035Z AUTO 33003KT 10SM BKN030 BKN035 26/20 A3013 RMK AO2 T02600195
KRPH 242015Z AUTO 34006KT 10SM BKN027 BKN034 27/20 A3012 RMK AO2 T02670196
KRPH 241955Z AUTO 31006KT 10SM SCT022 BKN030 27/20 A3013 RMK AO2 T02650198
KRPH 241935Z AUTO 31006KT 10SM BKN020 BKN025 OVC031 26/20 A3013 RMK AO2 T02610200
KRPH 241915Z AUTO 30010KT 10SM BKN020 BKN025 BKN030 26/21 A3014 RMK AO2 T02590206
KRPH 241855Z AUTO 31007KT 10SM SCT018 26/20 A3014 RMK AO2 T02560201
KRPH 241835Z AUTO 30006KT 10SM SCT018 25/20 A3015 RMK AO2 T02490196
KRPH 241815Z AUTO 33005KT 10SM SCT020 24/20 A3016 RMK AO2 T02400196
KRPH 241755Z AUTO 02004KT 10SM CLR 24/20 A3013 RMK AO2 60001 T02380204 10238 20197
KRPH 241735Z AUTO 06005KT 10SM SCT012 23/21 A3014 RMK AO2 T02340206
KRPH 241715Z AUTO 36004KT 10SM BKN012 23/23 A3015 RMK AO2 T02250225
KRPH 241655Z AUTO 33003KT 10SM BKN009 BKN015 22/22 A3016 RMK AO2 P0001 T02180218
KRPH 241635Z AUTO 00000KT 10SM -DZ SCT011 SCT032 SCT060 21/ A3016 RMK AO2 P0001 T0207
KRPH 241615Z AUTO 12003KT 10SM -RA SCT009 SCT032 BKN060 21/ A3015 RMK AO2 P0001 T0205
KRPH 241555Z AUTO 12004KT 10SM -RA SCT009 SCT030 BKN055 21/ A3014 RMK AO2 T0205
KRPH 241535Z AUTO 14003KT 10SM SCT009 SCT048 SCT070 21/ A3014 RMK AO2 T0205
KRPH 241515Z AUTO 00000KT 10SM -DZ SCT050 SCT055 20/ A3013 RMK AO2 T0204
KRPH 241455Z AUTO 10008G14KT 10SM -RA SCT026 BKN049 OVC065 20/ A3013 RMK AO2 P0007 60008 T0202
KRPH 241435Z AUTO 10007KT 10SM -RA 20/ A3015 RMK AO2 P0005 T0200
KRPH 241415Z AUTO 11009KT 7SM RA 20/ A3015 RMK AO2 P0004 T0199
KRPH 241355Z AUTO 08004KT 5SM RA 20/ A3016 RMK AO2 P0020 T0197
KRPH 241335Z AUTO 00000KT 5SM RA 20/ A3017 RMK AO2 P0016 T0198
KRPH 241315Z AUTO 08005KT 4SM RA 20/ A3015 RMK AO2 P0010 T0198
KRPH 241255Z AUTO 07006KT 4SM +RA 20/ A3014 RMK AO2 P0022 T0200
KRPH 241235Z AUTO 05005KT 4SM +RA 20/ A3014 RMK AO2 P0013 T0198
KRPH 241215Z AUTO 04009KT 7SM RA 20/ A3012 RMK AO2 P0005 T0200
KRPH 241155Z AUTO 05011KT 7SM RA 20/ A3008 RMK AO2 P0033 60034 70034 T0198 10293 20191
KRPH 241135Z AUTO 04010G15KT 3SM +RA 20/ A3009 RMK AO2 P0028 T0198
KRPH 241115Z AUTO 01004KT 3SM +RA 20/ A3010 RMK AO2 P0015 T0196
KRPH 241055Z AUTO 04009G19KT 5SM RA 20/ A3007 RMK AO2 P0062 T0197
KRPH 241035Z AUTO 04016G26KT 2SM +RA 20/ A3005 RMK AO2 P0053 T0195
KRPH 241015Z AUTO 03014G20KT 2SM +RA 19/ A3003 RMK AO2 P0022 T0191
KRPH 240955Z AUTO 02018G32KT 1 1/4SM +RA 19/ A3000 RMK AO2 P0024 T0192
KRPH 240935Z AUTO 36019G41KT 10SM SCT015 BKN031 OVC039 22/18 A3000 RMK AO2 T02200180
KRPH 240915Z AUTO 05004KT 10SM SCT031 BKN040 OVC050 26/22 A2995 RMK AO2 T02570216
KRPH 240855Z AUTO 07008KT 10SM SCT040 BKN050 26/22 A2992 RMK AO2 T02600215
KRPH 240835Z AUTO 07009G17KT 10SM SCT040 SCT047 SCT060 26/21 A2992 RMK AO2 T02620210
KRPH 240815Z AUTO 07012G16KT 030V090 10SM SCT044 SCT060 SCT100 27/21 A2992 RMK AO2 T02650205
KRPH 240755Z AUTO 07010G22KT 10SM SCT038 BKN046 BKN050 27/20 A2992 RMK AO2 T02690201
KRPH 240735Z AUTO 06008G15KT 10SM BKN038 BKN075 BKN090 27/21 A2993 RMK AO2 T02710210
KRPH 240715Z AUTO 06010G16KT 10SM SCT049 SCT075 28/21 A2994 RMK AO2 T02750212
KRPH 240655Z AUTO 05008G16KT 10SM SCT039 SCT049 28/22 A2994 RMK AO2 T02770220
KRPH 240635Z AUTO 06009G17KT 10SM SCT039 SCT047 29/23 A2994 RMK AO2 T02850226
KRPH 240615Z AUTO 05007KT 10SM CLR 29/23 A2994 RMK AO2 T02900226
KRPH 240555Z AUTO 06011G15KT 10SM SCT048 SCT055 SCT075 29/23 A2995 RMK AO2 T02930225 10361 20292 404000225
KRPH 240535Z AUTO 04007KT 10SM BKN048 OVC060 30/22 A2995 RMK AO2 T02960221
KRPH 240515Z AUTO 05006KT 10SM BKN048 BKN060 29/22 A2995 RMK AO2 T02930222
KRPH 240455Z AUTO 04005KT 10SM SCT060 30/22 A2993 RMK AO2 T02950221
KRPH 240435Z AUTO 07005KT 10SM CLR 30/22 A2992 RMK AO2 T02990220
KRPH 240415Z AUTO 07006KT 10SM SCT055 30/22 A2992 RMK AO2 T03010217
KRPH 240355Z AUTO 07005KT 10SM SCT055 30/22 A2991 RMK AO2 T03040216
KRPH 240335Z AUTO 07004KT 10SM SCT055 31/21 A2990 RMK AO2 T03050212
KRPH 240315Z AUTO 05004KT 10SM CLR 31/21 A2989 RMK AO2 T03100210
KRPH 240255Z AUTO 06005KT 10SM CLR 32/21 A2987 RMK AO2 T03150209
KRPH 240235Z AUTO 05004KT 10SM CLR 32/21 A2987 RMK AO2 T03150210
KRPH 240215Z AUTO 07004KT 10SM CLR 32/21 A2986 RMK AO2 T03180207
KRPH 240155Z AUTO 06005KT 10SM CLR 33/20 A2984 RMK AO2 T03250196
KRPH 240135Z AUTO 07006KT 10SM CLR 33/19 A2983 RMK AO2 T03310190
KRPH 240115Z AUTO 07005KT 10SM CLR 34/19 A2982 RMK AO2 T03400186
KRPH 240050Z AUTO 07006KT 10SM CLR 35/18 A2982 RMK AO2 T03500184
KRPH 240035Z AUTO 07007KT 10SM CLR 35/19 A2981 RMK AO2 T03520188
KRPH 240010Z AUTO 07007KT 10SM CLR 36/19 A2980 RMK AO2 T03600189
KRPH 232355Z AUTO 07007KT 10SM CLR 36/19 A2980 RMK AO2 T03600185 10400 20358
KRPH 232335Z AUTO 07006KT 10SM CLR 36/18 A2979 RMK AO2 T03620183
KRPH 232315Z AUTO 07008KT 10SM CLR 37/18 A2978 RMK AO2 T03650179
KRPH 232255Z AUTO 06008KT 10SM CLR 37/18 A2978 RMK AO2 T03670176
KRPH 232235Z AUTO 05009KT 10SM CLR 38/18 A2978 RMK AO2 T03770179
KRPH 232215Z AUTO 07008KT 10SM CLR 39/18 A2978 RMK AO2 T03930182
KRPH 232155Z AUTO 04007KT 10SM CLR 40/18 A2978 RMK AO2 T03960182
KRPH 232135Z AUTO 06006KT 10SM CLR 40/19 A2978 RMK AO2 T03980186
KRPH 232115Z AUTO 06007G15KT 10SM CLR 40/18 A2978 RMK AO2 T03990181
KRPH 232055Z AUTO 07007KT 10SM CLR 40/18 A2979 RMK AO2 T04000177
KRPH 232035Z AUTO 06008KT 030V110 10SM CLR 40/17 A2980 RMK AO2 T03960174
KRPH 232015Z AUTO 08005KT 10SM CLR 40/17 A2980 RMK AO2 T03960170
KRPH 231955Z AUTO 13007KT 070V150 10SM CLR 39/18 A2980 RMK AO2 T03910177
KRPH 231935Z AUTO 13008KT 060V140 10SM CLR 39/18 A2980 RMK AO2 T03930178
KRPH 231915Z AUTO 09005KT 10SM CLR 39/18 A2981 RMK AO2 T03930184
KRPH 231855Z AUTO 06008KT 10SM CLR 39/18 A2981 RMK AO2 T03900181
KRPH 231835Z AUTO 05003KT 10SM CLR 39/19 A2981 RMK AO2 T03860186
KRPH 231815Z AUTO 07004KT 10SM CLR 38/18 A2981 RMK AO2 T03770184
KRPH 231755Z AUTO 00000KT 10SM CLR 38/20 A2980 RMK AO2 T03750200 10375 20225
KRPH 231735Z AUTO 07005KT 10SM CLR 37/20 A2980 RMK AO2 T03680203
KRPH 231715Z AUTO 04005KT 10SM CLR 36/21 A2980 RMK AO2 T03610205
KRPH 231655Z AUTO 07005KT 10SM CLR 36/21 A2979 RMK AO2 T03550209
KRPH 231635Z AUTO 18004KT 10SM CLR 35/21 A2978 RMK AO2 T03480208
KRPH 231615Z AUTO 00000KT 10SM CLR 34/21 A2978 RMK AO2 T03390208
KRPH 231555Z AUTO 17004KT 10SM CLR 33/21 A2978 RMK AO2 T03300210
KRPH 231535Z AUTO 16005KT 10SM CLR 32/21 A2978 RMK AO2 T03200214
KRPH 231515Z AUTO 16005KT 10SM CLR 31/22 A2978 RMK AO2 T03080219
KRPH 231455Z AUTO 19003KT 10SM CLR 30/22 A2978 RMK AO2 T02980222
KRPH 231435Z AUTO 15006KT 10SM CLR 29/22 A2978 RMK AO2 T02880221
KRPH 231415Z AUTO 18004KT 10SM CLR 29/22 A2979 RMK AO2 T02850222
KRPH 231355Z AUTO 15003KT 10SM CLR 28/22 A2979 RMK AO2 T02760223
KRPH 231335Z AUTO 16003KT 10SM CLR 27/23 A2978 RMK AO2 T02700226
KRPH 231315Z AUTO 13004KT 10SM CLR 26/23 A2977 RMK AO2 T02600230
KRPH 231255Z AUTO 12003KT 10SM CLR 25/25 A2977 RMK AO2 T02490248
KRPH 231235Z AUTO 00000KT 10SM CLR 24/24 A2977 RMK AO2 T02380238
KRPH 231215Z AUTO 00000KT 10SM CLR 23/23 A2976 RMK AO2 T02300230
KRPH 231155Z AUTO 00000KT 10SM CLR 23/23 A2976 RMK AO2 T02250225 10258 20225
KRPH 231135Z AUTO 00000KT 10SM CLR 23/23 A2974 RMK AO2 T02250225
KRPH 231115Z AUTO 00000KT 10SM CLR 23/23 A2973 RMK AO2 T02300230
KRPH 231055Z AUTO 00000KT 10SM CLR 24/24 A2972 RMK AO2 T02350235
KRPH 231035Z AUTO 00000KT 10SM CLR 24/24 A2971 RMK AO2 T02380238
KRPH 231015Z AUTO 12003KT 10SM CLR 24/24 A2970 RMK AO2 T02390238
KRPH 230955Z AUTO 00000KT 10SM CLR 24/23 A2971 RMK AO2 T02400228
KRPH 230935Z AUTO 12003KT 10SM CLR 24/22 A2970 RMK AO2 T02400223
KRPH 230915Z AUTO 12003KT 10SM CLR 24/22 A2970 RMK AO2 T02400219


Page loaded:  20:55 UTC  |   01:55 PM Pacific  |   02:55 PM Mountain  |   03:55 PM Central  |   04:55 PM Eastern

 

ADVISORIES

FORECASTS

FORECASTS

OBSERVATIONS

USER TOOLS

ABOUT US